Time;durP1;ratioP1;P1;durP2;ratioP2;P2;SDS_P1;SDS_P2;PMS_P1;PMS_P2;Temp;Humidity;BMP_temperature;BMP_pressure;BME280_temperature;BME280_humidity;BME280_pressure;Samples;Min_cycle;Max_cycle;Signal;HPM_P1;HPM_P2
2023/01/01 00:02:03;;;;;;;;;;;;;;;;;;5011314;28;20089;-88
2023/01/01 00:04:30;;;;;;;;;;;;;;;;;;5011203;28;19922;-88
2023/01/01 00:06:56;;;;;;;;;;;;;;;;;;5012233;28;20284;-89
2023/01/01 00:12:07;;;;;;;;;;;;;;;;;;5028896;28;19962;-87
2023/01/01 00:14:33;;;;;;;;;;;;;;;;;;5012527;28;19921;-87
2023/01/01 00:16:59;;;;;;;;;;;;;;;;;;5011390;28;19968;-87
2023/01/01 00:19:25;;;;;;;;;;;;;;;;;;5028385;28;19925;-90
2023/01/01 00:21:54;;;;;;;;;;;;;;;;;;5012183;28;19929;-90
2023/01/01 00:24:20;;;;;;;;;;;;;;;;;;5012357;28;19921;-89
2023/01/01 00:26:46;;;;;;;;;;;;;;;;;;5011317;28;19947;-90
2023/01/01 00:29:11;;;;;;;;;;;;;;;;;;5011148;28;19956;-91
2023/01/01 00:31:37;;;;;;;;;;;;;;;;;;5011196;28;19936;-89
2023/01/01 00:34:03;;;;;;;;;;;;;;;;;;5011520;28;20008;-91
2023/01/01 00:36:29;;;;;;;;;;;;;;;;;;5011383;28;20266;-90
2023/01/01 00:38:55;;;;;;;;;;;;;;;;;;5011266;28;19926;-90
2023/01/01 00:41:21;;;;;;;;;;;;;;;;;;5011209;28;19927;-90
2023/01/01 00:43:47;;;;;;;;;;;;;;;;;;5011537;28;20265;-91
2023/01/01 00:46:13;;;;;;;;;;;;;;;;;;5011293;28;19971;-90
2023/01/01 00:48:39;;;;;;;;;;;;;;;;;;5011149;28;20087;-90
2023/01/01 00:51:05;;;;;;;;;;;;;;;;;;5010877;28;19977;-90
2023/01/01 00:53:31;;;;;;;;;;;;;;;;;;5010798;28;19988;-90
2023/01/01 00:55:57;;;;;;;;;;;;;;;;;;5010534;28;19937;-90
2023/01/01 00:58:23;;;;;;;;;;;;;;;;;;5010990;28;20288;-90
2023/01/01 01:00:49;;;;;;;;;;;;;;;;;;5010828;28;20293;-90
2023/01/01 01:03:27;;;;;;;;;;;;;;;;;;5011229;28;20470;-90
2023/01/01 01:05:53;;;;;;;;;;;;;;;;;;5012183;28;19921;-91
2023/01/01 01:08:19;;;;;;;;;;;;;;;;;;5014512;28;19964;-90
2023/01/01 01:10:44;;;;;;;;;;;;;;;;;;5014401;28;20036;-91
2023/01/01 01:13:10;;;;;;;;;;;;;;;;;;5014394;28;19988;-90
2023/01/01 01:15:36;;;;;;;;;;;;;;;;;;5014549;28;20292;-90
2023/01/01 01:18:02;;;;;;;;;;;;;;;;;;5014307;28;19940;-90
2023/01/01 01:20:28;;;;;;;;;;;;;;;;;;5014269;28;20016;-90
2023/01/01 01:22:54;;;;;;;;;;;;;;;;;;5014046;28;19976;-90
2023/01/01 01:25:20;;;;;;;;;;;;;;;;;;5014032;28;19921;-91
2023/01/01 01:27:46;;;;;;;;;;;;;;;;;;5014107;28;19928;-90
2023/01/01 01:30:12;;;;;;;;;;;;;;;;;;5014591;28;20012;-90
2023/01/01 01:32:38;;;;;;;;;;;;;;;;;;5013978;28;19925;-90
2023/01/01 01:35:04;;;;;;;;;;;;;;;;;;5013696;28;20292;-90
2023/01/01 01:37:30;;;;;;;;;;;;;;;;;;5013740;28;19926;-90
2023/01/01 01:39:56;;;;;;;;;;;;;;;;;;5013809;28;19922;-90
2023/01/01 01:42:22;;;;;;;;;;;;;;;;;;5013852;28;19933;-90
2023/01/01 01:44:47;;;;;;;;;;;;;;;;;;5013672;28;19945;-90
2023/01/01 01:47:13;;;;;;;;;;;;;;;;;;5013795;28;19929;-90
2023/01/01 01:49:39;;;;;;;;;;;;;;;;;;5013875;28;20339;-90
2023/01/01 01:52:05;;;;;;;;;;;;;;;;;;5013641;28;19933;-90
2023/01/01 01:54:31;;;;;;;;;;;;;;;;;;5013722;28;19921;-90
2023/01/01 01:56:57;;;;;;;;;;;;;;;;;;5013124;28;19926;-90
2023/01/01 01:59:23;;;;;;;;;;;;;;;;;;5013475;28;20300;-90
2023/01/01 02:01:49;;;;;;;;;;;;;;;;;;5013443;28;19929;-90
2023/01/01 02:04:15;;;;;;;;;;;;;;;;;;5013395;28;19925;-89
2023/01/01 02:06:41;;;;;;;;;;;;;;;;;;5013939;28;19925;-90
2023/01/01 02:09:06;;;;;;;;;;;;;;;;;;5013366;28;19922;-90
2023/01/01 02:11:32;;;;;;;;;;;;;;;;;;5013293;28;20275;-90
2023/01/01 02:13:58;;;;;;;;;;;;;;;;;;5013648;28;19921;-89
2023/01/01 02:16:24;;;;;;;;;;;;;;;;;;5012981;28;19922;-89
2023/01/01 02:18:50;;;;;;;;;;;;;;;;;;5013444;28;20380;-90
2023/01/01 02:21:16;;;;;;;;;;;;;;;;;;5012933;28;19921;-90
2023/01/01 02:23:43;;;;;;;;;;;;;;;;;;5013281;28;20004;-90
2023/01/01 02:26:09;;;;;;;;;;;;;;;;;;5013242;28;20287;-89
2023/01/01 02:28:35;;;;;;;;;;;;;;;;;;5013352;28;20020;-89
2023/01/01 02:31:01;;;;;;;;;;;;;;;;;;5013187;28;20387;-90
2023/01/01 02:33:27;;;;;;;;;;;;;;;;;;5012841;28;19926;-90
2023/01/01 02:35:53;;;;;;;;;;;;;;;;;;5012753;28;19922;-90
2023/01/01 02:38:18;;;;;;;;;;;;;;;;;;5012672;28;20017;-90
2023/01/01 02:40:44;;;;;;;;;;;;;;;;;;5013168;28;19926;-90
2023/01/01 02:43:10;;;;;;;;;;;;;;;;;;5012851;28;19928;-89
2023/01/01 02:45:36;;;;;;;;;;;;;;;;;;5012521;28;19922;-90
2023/01/01 02:48:02;;;;;;;;;;;;;;;;;;5012550;28;19922;-90
2023/01/01 02:50:28;;;;;;;;;;;;;;;;;;5013007;28;19971;-90
2023/01/01 02:52:54;;;;;;;;;;;;;;;;;;5012438;28;19932;-90
2023/01/01 02:55:20;;;;;;;;;;;;;;;;;;5012426;28;19922;-89
2023/01/01 02:57:46;;;;;;;;;;;;;;;;;;5012626;28;20288;-91
2023/01/01 03:00:18;;;;;;;;;;;;;;;;;;5012845;28;19948;-90
2023/01/01 03:02:44;;;;;;;;;;;;;;;;;;5012525;28;19984;-90
2023/01/01 03:05:09;;;;;;;;;;;;;;;;;;5012436;28;19964;-90
2023/01/01 03:07:35;;;;;;;;;;;;;;;;;;5012411;28;19935;-90
2023/01/01 03:10:01;;;;;;;;;;;;;;;;;;5012589;28;20012;-90
2023/01/01 03:12:38;;;;;;;;;;;;;;;;;;5012299;28;19925;-89
2023/01/01 03:15:04;;;;;;;;;;;;;;;;;;5012003;28;19921;-89
2023/01/01 03:17:32;;;;;;;;;;;;;;;;;;5011461;28;20191;-90
2023/01/01 03:19:58;;;;;;;;;;;;;;;;;;5012135;28;19987;-90
2023/01/01 03:22:24;;;;;;;;;;;;;;;;;;5012457;28;19931;-90
2023/01/01 03:24:50;;;;;;;;;;;;;;;;;;5011945;28;19987;-91
2023/01/01 03:27:16;;;;;;;;;;;;;;;;;;5012011;28;19921;-90
2023/01/01 03:29:42;;;;;;;;;;;;;;;;;;5011254;28;19922;-90
2023/01/01 03:32:08;;;;;;;;;;;;;;;;;;5011631;28;20016;-91
2023/01/01 03:34:33;;;;;;;;;;;;;;;;;;5012368;28;20412;-91
2023/01/01 03:36:59;;;;;;;;;;;;;;;;;;5012309;28;19988;-90
2023/01/01 03:39:25;;;;;;;;;;;;;;;;;;5011973;28;19925;-90
2023/01/01 03:41:51;;;;;;;;;;;;;;;;;;5011579;28;19929;-91
2023/01/01 03:44:17;;;;;;;;;;;;;;;;;;5011812;28;19921;-90
2023/01/01 03:46:43;;;;;;;;;;;;;;;;;;5011463;28;20016;-90
2023/01/01 03:49:09;;;;;;;;;;;;;;;;;;5011530;28;20008;-90
2023/01/01 03:51:35;;;;;;;;;;;;;;;;;;5011931;28;20002;-90
2023/01/01 03:54:01;;;;;;;;;;;;;;;;;;5011706;28;20004;-90
2023/01/01 03:56:27;;;;;;;;;;;;;;;;;;5011295;28;20004;-90
2023/01/01 03:58:53;;;;;;;;;;;;;;;;;;5011460;28;19968;-90
2023/01/01 04:01:19;;;;;;;;;;;;;;;;;;5011333;28;19921;-90
2023/01/01 04:03:44;;;;;;;;;;;;;;;;;;5011674;28;19925;-90
2023/01/01 04:06:10;;;;;;;;;;;;;;;;;;5011733;28;19922;-90
2023/01/01 04:08:36;;;;;;;;;;;;;;;;;;5011421;28;19922;-90
2023/01/01 04:12:00;;;;;;;;;;;;;;;;;;5011329;28;19970;-91
2023/01/01 04:13:48;;;;;;;;;;;;;;;;;;5011221;28;19929;-90
2023/01/01 04:16:14;;;;;;;;;;;;;;;;;;5011444;28;19922;-90
2023/01/01 04:18:40;;;;;;;;;;;;;;;;;;5011600;28;20395;-90
2023/01/01 04:21:06;;;;;;;;;;;;;;;;;;5011347;28;19951;-91
2023/01/01 04:23:32;;;;;;;;;;;;;;;;;;5011521;28;19921;-91
2023/01/01 04:25:57;;;;;;;;;;;;;;;;;;5011567;28;19948;-90
2023/01/01 04:28:23;;;;;;;;;;;;;;;;;;5011515;28;20077;-90
2023/01/01 04:30:49;;;;;;;;;;;;;;;;;;5011223;28;19922;-90
2023/01/01 04:33:15;;;;;;;;;;;;;;;;;;5011062;28;19936;-90
2023/01/01 04:35:41;;;;;;;;;;;;;;;;;;5010901;28;19928;-89
2023/01/01 04:38:07;;;;;;;;;;;;;;;;;;5011362;28;19922;-89
2023/01/01 04:40:33;;;;;;;;;;;;;;;;;;5012545;28;19921;-89
2023/01/01 04:42:59;;;;;;;;;;;;;;;;;;5015006;28;20012;-89
2023/01/01 04:45:25;;;;;;;;;;;;;;;;;;5015108;28;19925;-88
2023/01/01 04:47:51;;;;;;;;;;;;;;;;;;5014964;28;20373;-89
2023/01/01 04:50:16;;;;;;;;;;;;;;;;;;5014748;28;19922;-89
2023/01/01 04:52:42;;;;;;;;;;;;;;;;;;5014658;28;20221;-89
2023/01/01 04:55:08;;;;;;;;;;;;;;;;;;5014440;28;20331;-89
2023/01/01 04:57:34;;;;;;;;;;;;;;;;;;5014402;28;19925;-89
2023/01/01 05:00:00;;;;;;;;;;;;;;;;;;5014375;28;19936;-90
2023/01/01 05:02:26;;;;;;;;;;;;;;;;;;5014570;28;19945;-89
2023/01/01 05:04:52;;;;;;;;;;;;;;;;;;5014584;28;20046;-90
2023/01/01 05:07:18;;;;;;;;;;;;;;;;;;5014437;28;19929;-89
2023/01/01 05:09:44;;;;;;;;;;;;;;;;;;5014684;28;20280;-89
2023/01/01 05:12:10;;;;;;;;;;;;;;;;;;5014131;28;20203;-89
2023/01/01 05:14:36;;;;;;;;;;;;;;;;;;5014335;28;19921;-90
2023/01/01 05:17:01;;;;;;;;;;;;;;;;;;5014169;28;19922;-89
2023/01/01 05:19:27;;;;;;;;;;;;;;;;;;5014347;28;19921;-90
2023/01/01 05:21:54;;;;;;;;;;;;;;;;;;5014407;28;20373;-91
2023/01/01 05:24:20;;;;;;;;;;;;;;;;;;5014038;28;19972;-91
2023/01/01 05:26:46;;;;;;;;;;;;;;;;;;5013992;28;20228;-91
2023/01/01 05:29:12;;;;;;;;;;;;;;;;;;5014159;28;20395;-91
2023/01/01 05:31:38;;;;;;;;;;;;;;;;;;5013952;28;20016;-90
2023/01/01 05:34:04;;;;;;;;;;;;;;;;;;5013973;28;19925;-90
2023/01/01 05:36:30;;;;;;;;;;;;;;;;;;5013824;28;19952;-89
2023/01/01 05:38:56;;;;;;;;;;;;;;;;;;5013871;28;20458;-91
2023/01/01 05:41:22;;;;;;;;;;;;;;;;;;5013814;28;20233;-90
2023/01/01 05:43:48;;;;;;;;;;;;;;;;;;5013944;28;19936;-90
2023/01/01 05:46:14;;;;;;;;;;;;;;;;;;5013703;28;19925;-90
2023/01/01 05:48:40;;;;;;;;;;;;;;;;;;5013977;28;20337;-91
2023/01/01 05:51:05;;;;;;;;;;;;;;;;;;5013329;28;20427;-90
2023/01/01 05:53:31;;;;;;;;;;;;;;;;;;5013470;28;19926;-90
2023/01/01 05:55:57;;;;;;;;;;;;;;;;;;5013320;28;19926;-90
2023/01/01 05:58:23;;;;;;;;;;;;;;;;;;5013912;28;19921;-90
2023/01/01 06:00:49;;;;;;;;;;;;;;;;;;5013483;28;19943;-91
2023/01/01 06:03:15;;;;;;;;;;;;;;;;;;5013682;28;19925;-90
2023/01/01 06:05:41;;;;;;;;;;;;;;;;;;5013693;28;20364;-90
2023/01/01 06:08:07;;;;;;;;;;;;;;;;;;5013267;28;19922;-90
2023/01/01 06:10:33;;;;;;;;;;;;;;;;;;5013412;28;19932;-90
2023/01/01 06:12:59;;;;;;;;;;;;;;;;;;5013390;28;20253;-90
2023/01/01 06:15:25;;;;;;;;;;;;;;;;;;5013662;28;19932;-90
2023/01/01 06:17:51;;;;;;;;;;;;;;;;;;5013230;28;20037;-91
2023/01/01 06:20:16;;;;;;;;;;;;;;;;;;5013306;28;20116;-90
2023/01/01 06:22:42;;;;;;;;;;;;;;;;;;5013204;28;19926;-90
2023/01/01 06:25:08;;;;;;;;;;;;;;;;;;5013377;28;19926;-91
2023/01/01 06:27:34;;;;;;;;;;;;;;;;;;5013002;28;19928;-90
2023/01/01 06:30:00;;;;;;;;;;;;;;;;;;5013024;28;19921;-90
2023/01/01 06:32:26;;;;;;;;;;;;;;;;;;5012793;28;19932;-90
2023/01/01 06:34:52;;;;;;;;;;;;;;;;;;5013096;28;19933;-90
2023/01/01 06:37:18;;;;;;;;;;;;;;;;;;5013177;28;19921;-90
2023/01/01 06:39:44;;;;;;;;;;;;;;;;;;5012751;28;19922;-90
2023/01/01 06:42:10;;;;;;;;;;;;;;;;;;5012718;28;20067;-91
2023/01/01 06:44:36;;;;;;;;;;;;;;;;;;5013012;28;20388;-90
2023/01/01 06:47:01;;;;;;;;;;;;;;;;;;5013025;28;19992;-90
2023/01/01 06:49:27;;;;;;;;;;;;;;;;;;5012827;28;20022;-90
2023/01/01 06:51:53;;;;;;;;;;;;;;;;;;5012450;28;20008;-90
2023/01/01 06:54:19;;;;;;;;;;;;;;;;;;5012622;28;20496;-90
2023/01/01 06:56:45;;;;;;;;;;;;;;;;;;5012515;28;20063;-90
2023/01/01 06:59:11;;;;;;;;;;;;;;;;;;5012575;28;19928;-91
2023/01/01 07:01:38;;;;;;;;;;;;;;;;;;5012802;28;19925;-90
2023/01/01 07:04:04;;;;;;;;;;;;;;;;;;5012116;28;20257;-90
2023/01/01 07:06:30;;;;;;;;;;;;;;;;;;5012776;28;19928;-91
2023/01/01 07:08:56;;;;;;;;;;;;;;;;;;5012192;28;19921;-91
2023/01/01 07:11:22;;;;;;;;;;;;;;;;;;5012518;28;20006;-90
2023/01/01 07:13:48;;;;;;;;;;;;;;;;;;5012330;28;19988;-91
2023/01/01 07:16:14;;;;;;;;;;;;;;;;;;5012081;28;19921;-90
2023/01/01 07:18:40;;;;;;;;;;;;;;;;;;5012306;28;19922;-91
2023/01/01 07:21:06;;;;;;;;;;;;;;;;;;5012022;28;20296;-90
2023/01/01 07:23:32;;;;;;;;;;;;;;;;;;5012116;28;19921;-89
2023/01/01 07:25:58;;;;;;;;;;;;;;;;;;5012168;28;19921;-90
2023/01/01 07:28:24;;;;;;;;;;;;;;;;;;5011789;28;20395;-90
2023/01/01 07:30:51;;;;;;;;;;;;;;;;;;5011714;28;19921;-91
2023/01/01 07:33:17;;;;;;;;;;;;;;;;;;5011959;28;19925;-90
2023/01/01 07:35:46;;;;;;;;;;;;;;;;;;5013107;28;19984;-91
2023/01/01 07:38:12;;;;;;;;;;;;;;;;;;5012430;28;19995;-93
2023/01/01 07:40:37;;;;;;;;;;;;;;;;;;5012414;28;19929;-91
2023/01/01 07:43:03;;;;;;;;;;;;;;;;;;5012526;28;20028;-92
2023/01/01 07:45:29;;;;;;;;;;;;;;;;;;5012259;28;19922;-91
2023/01/01 07:47:55;;;;;;;;;;;;;;;;;;5012058;28;19998;-91
2023/01/01 07:50:21;;;;;;;;;;;;;;;;;;5011940;28;20253;-92
2023/01/01 07:52:47;;;;;;;;;;;;;;;;;;5011969;28;19926;-91
2023/01/01 07:55:13;;;;;;;;;;;;;;;;;;5011653;28;19922;-91
2023/01/01 07:57:41;;;;;;;;;;;;;;;;;;5011489;28;19925;-92
2023/01/01 08:00:07;;;;;;;;;;;;;;;;;;5012405;28;19929;-92
2023/01/01 08:02:33;;;;;;;;;;;;;;;;;;5014568;28;19921;-91
2023/01/01 08:05:02;;;;;;;;;;;;;;;;;;5012110;28;19930;-91
2023/01/01 08:07:28;;;;;;;;;;;;;;;;;;5012147;28;19971;-91
2023/01/01 08:09:54;;;;;;;;;;;;;;;;;;5011954;28;19928;-92
2023/01/01 08:12:20;;;;;;;;;;;;;;;;;;5011891;28;19925;-92
2023/01/01 08:14:46;;;;;;;;;;;;;;;;;;5014524;28;19975;-93
2023/01/01 08:17:12;;;;;;;;;;;;;;;;;;5018541;28;19932;-91
2023/01/01 08:19:41;;;;;;;;;;;;;;;;;;5018429;28;19929;-92
2023/01/01 08:22:07;;;;;;;;;;;;;;;;;;5018743;28;19921;-92
2023/01/01 08:24:36;;;;;;;;;;;;;;;;;;5019304;28;20257;-91
2023/01/01 08:27:02;;;;;;;;;;;;;;;;;;5018665;28;19929;-92
2023/01/01 08:29:27;;;;;;;;;;;;;;;;;;5019341;28;19921;-93
2023/01/01 08:31:59;;;;;;;;;;;;;;;;;;5010842;28;20472;-94
2023/01/01 08:34:31;;;;;;;;;;;;;;;;;;5029983;28;19925;-95
2023/01/01 08:36:58;;;;;;;;;;;;;;;;;;5012452;28;19944;-95
2023/01/01 08:39:25;;;;;;;;;;;;;;;;;;5019459;28;20435;-96
2023/01/01 08:41:54;;;;;;;;;;;;;;;;;;5019672;28;19975;-96
2023/01/01 08:44:46;;;;;;;;;;;;;;;;;;5018849;28;19968;-90
2023/01/01 08:47:12;;;;;;;;;;;;;;;;;;5018008;28;19926;-92
2023/01/01 08:49:38;;;;;;;;;;;;;;;;;;5017910;28;19925;-91
2023/01/01 08:52:04;;;;;;;;;;;;;;;;;;5018015;28;19930;-92
2023/01/01 08:54:30;;;;;;;;;;;;;;;;;;5017887;28;20000;-93
2023/01/01 08:56:59;;;;;;;;;;;;;;;;;;5017572;28;19939;-92
2023/01/01 08:59:25;;;;;;;;;;;;;;;;;;5017693;28;19933;-92
2023/01/01 09:01:52;;;;;;;;;;;;;;;;;;5017999;28;19944;-90
2023/01/01 09:04:18;;;;;;;;;;;;;;;;;;5017873;28;19929;-90
2023/01/01 09:06:44;;;;;;;;;;;;;;;;;;5017318;28;19921;-91
2023/01/01 09:09:09;;;;;;;;;;;;;;;;;;5018125;28;20288;-91
2023/01/01 09:11:38;;;;;;;;;;;;;;;;;;5017660;28;19922;-88
2023/01/01 09:14:04;;;;;;;;;;;;;;;;;;5017359;28;20001;-90
2023/01/01 09:16:31;;;;;;;;;;;;;;;;;;5017341;28;19922;-89
2023/01/01 09:18:57;;;;;;;;;;;;;;;;;;5017543;28;20368;-89
2023/01/01 09:21:23;;;;;;;;;;;;;;;;;;5017342;28;19928;-89
2023/01/01 09:23:49;;;;;;;;;;;;;;;;;;5017093;28;19922;-88
2023/01/01 09:26:18;;;;;;;;;;;;;;;;;;5016865;28;19921;-90
2023/01/01 09:28:44;;;;;;;;;;;;;;;;;;5014135;28;19928;-89
2023/01/01 09:31:10;;;;;;;;;;;;;;;;;;5014008;28;19926;-89
2023/01/01 09:33:36;;;;;;;;;;;;;;;;;;5014762;28;19932;-88
2023/01/01 09:36:02;;;;;;;;;;;;;;;;;;5014001;28;19929;-88
2023/01/01 09:38:27;;;;;;;;;;;;;;;;;;5013905;28;19921;-88
2023/01/01 09:40:53;;;;;;;;;;;;;;;;;;5017905;28;20407;-90
2023/01/01 09:43:19;;;;;;;;;;;;;;;;;;5014105;28;20028;-90
2023/01/01 09:45:45;;;;;;;;;;;;;;;;;;5013449;28;19925;-89
2023/01/01 09:48:14;;;;;;;;;;;;;;;;;;5013336;28;19922;-89
2023/01/01 09:50:40;;;;;;;;;;;;;;;;;;5013393;28;20399;-87
2023/01/01 09:53:06;;;;;;;;;;;;;;;;;;5013341;28;19932;-90
2023/01/01 09:55:32;;;;;;;;;;;;;;;;;;5013009;28;19925;-88
2023/01/01 09:57:58;;;;;;;;;;;;;;;;;;5013364;28;19921;-88
2023/01/01 10:00:25;;;;;;;;;;;;;;;;;;5006278;28;20396;-88
2023/01/01 10:02:51;;;;;;;;;;;;;;;;;;4996734;28;19928;-89
2023/01/01 10:05:17;;;;;;;;;;;;;;;;;;4996768;28;19921;-88
2023/01/01 10:07:42;;;;;;;;;;;;;;;;;;4996699;28;19992;-90
2023/01/01 10:10:08;;;;;;;;;;;;;;;;;;4996903;28;19992;-88
2023/01/01 10:12:34;;;;;;;;;;;;;;;;;;4996968;28;19945;-89
2023/01/01 10:15:00;;;;;;;;;;;;;;;;;;5013133;28;20222;-92
2023/01/01 10:17:26;;;;;;;;;;;;;;;;;;4997260;28;19922;-91
2023/01/01 10:19:52;;;;;;;;;;;;;;;;;;4997070;28;19966;-90
2023/01/01 10:22:18;;;;;;;;;;;;;;;;;;4996971;28;20269;-91
2023/01/01 10:24:44;;;;;;;;;;;;;;;;;;4997302;28;20324;-91
2023/01/01 10:27:11;;;;;;;;;;;;;;;;;;5013536;28;20344;-91
2023/01/01 10:29:41;;;;;;;;;;;;;;;;;;4997045;28;20003;-91
2023/01/01 10:32:07;;;;;;;;;;;;;;;;;;5013993;28;19965;-95
2023/01/01 10:34:33;;;;;;;;;;;;;;;;;;4997397;28;20396;-90
2023/01/01 10:36:59;;;;;;;;;;;;;;;;;;5012709;28;19948;-89
2023/01/01 10:39:25;;;;;;;;;;;;;;;;;;5011975;28;19925;-91
2023/01/01 10:41:51;;;;;;;;;;;;;;;;;;5012990;28;19921;-91
2023/01/01 10:44:17;;;;;;;;;;;;;;;;;;5012749;28;19987;-91
2023/01/01 10:46:43;;;;;;;;;;;;;;;;;;4996193;28;19921;-91
2023/01/01 10:51:45;;;;;;;;;;;;;;;;;;5435711;22;19928;-89
2023/01/01 10:54:11;;;;;;;;;;;;;;;;;;5038835;28;19931;-88
2023/01/01 10:56:36;;;;;;;;;;;;;;;;;;5038495;28;20327;-88
2023/01/01 10:59:02;;;;;;;;;;;;;;;;;;5055301;28;19936;-88
2023/01/01 11:01:28;;;;;;;;;;;;;;;;;;5038558;28;19924;-88
2023/01/01 11:03:54;;;;;;;;;;;;;;;;;;5054948;28;19924;-88
2023/01/01 11:06:20;;;;;;;;;;;;;;;;;;5054919;28;20350;-88
2023/01/01 11:08:46;;;;;;;;;;;;;;;;;;5038374;28;20022;-88
2023/01/01 11:11:12;;;;;;;;;;;;;;;;;;5055091;28;19932;-87
2023/01/01 11:13:38;;;;;;;;;;;;;;;;;;5054775;28;20325;-88
2023/01/01 11:16:04;;;;;;;;;;;;;;;;;;5054620;28;20437;-88
2023/01/01 11:18:34;;;;;;;;;;;;;;;;;;5038226;28;19920;-87
2023/01/01 11:21:00;;;;;;;;;;;;;;;;;;5038346;28;19967;-88
2023/01/01 11:23:27;;;;;;;;;;;;;;;;;;5038075;28;19963;-88
2023/01/01 11:25:53;;;;;;;;;;;;;;;;;;5037918;28;19920;-88
2023/01/01 11:28:20;;;;;;;;;;;;;;;;;;5038388;28;19924;-87
2023/01/01 11:30:46;;;;;;;;;;;;;;;;;;5054593;28;19920;-88
2023/01/01 11:33:11;;;;;;;;;;;;;;;;;;5054727;28;19924;-88
2023/01/01 11:35:37;;;;;;;;;;;;;;;;;;5054598;28;20332;-87
2023/01/01 11:38:03;;;;;;;;;;;;;;;;;;5037561;28;19920;-87
2023/01/01 11:40:29;;;;;;;;;;;;;;;;;;5054308;28;19927;-88
2023/01/01 11:42:55;;;;;;;;;;;;;;;;;;5037603;28;20329;-89
2023/01/01 11:45:21;;;;;;;;;;;;;;;;;;5037729;28;19973;-89
2023/01/01 11:47:47;;;;;;;;;;;;;;;;;;5054634;28;19921;-94
2023/01/01 11:50:13;;;;;;;;;;;;;;;;;;5037735;28;19931;-92
2023/01/01 11:52:46;;;;;;;;;;;;;;;;;;5043827;28;19928;-95
2023/01/01 11:55:12;;;;;;;;;;;;;;;;;;5034079;28;19982;-93
2023/01/01 11:57:38;;;;;;;;;;;;;;;;;;5039810;28;19925;-95
2023/01/01 12:00:07;;;;;;;;;;;;;;;;;;5040546;28;19920;-96
2023/01/01 12:02:33;;;;;;;;;;;;;;;;;;5039931;28;19925;-94
2023/01/01 12:04:59;;;;;;;;;;;;;;;;;;5038430;28;20044;-94
2023/01/01 12:07:25;;;;;;;;;;;;;;;;;;5039057;28;20007;-94
2023/01/01 12:09:51;;;;;;;;;;;;;;;;;;5038313;28;20311;-94
2023/01/01 12:12:17;;;;;;;;;;;;;;;;;;5036400;28;19924;-95
2023/01/01 12:22:41;;;;;;;;;;;;;;;;;;5880963;22;20284;-94
2023/01/01 12:48:17;;;;;;;;;;;;;;;;;;4990452;28;19962;-93
2023/01/01 12:50:42;;;;;;;;;;;;;;;;;;4964272;28;19929;-90
2023/01/01 12:53:09;;;;;;;;;;;;;;;;;;4975778;28;19921;-92
2023/01/01 12:55:35;;;;;;;;;;;;;;;;;;4989978;28;19920;-92
2023/01/01 12:58:01;;;;;;;;;;;;;;;;;;4985926;28;19925;-93
2023/01/01 13:00:26;;;;;;;;;;;;;;;;;;4979244;28;20450;-92
2023/01/01 13:02:52;;;;;;;;;;;;;;;;;;4982458;28;20399;-93
2023/01/01 13:05:18;;;;;;;;;;;;;;;;;;4982766;28;20027;-89
2023/01/01 13:07:44;;;;;;;;;;;;;;;;;;4998197;28;19944;-91
2023/01/01 13:10:10;;;;;;;;;;;;;;;;;;4999033;28;20049;-96
2023/01/01 13:12:36;;;;;;;;;;;;;;;;;;4993077;28;19925;-96
2023/01/01 13:15:02;;;;;;;;;;;;;;;;;;4985916;28;19921;-96
2023/01/01 13:17:46;;;;;;;;;;;;;;;;;;5004193;28;19922;-96
2023/01/01 13:20:12;;;;;;;;;;;;;;;;;;4996219;28;19925;-95
2023/01/01 13:22:42;;;;;;;;;;;;;;;;;;5002825;28;19968;-95
2023/01/01 13:25:12;;;;;;;;;;;;;;;;;;5003861;28;19921;-96
2023/01/01 13:27:38;;;;;;;;;;;;;;;;;;5017990;28;19922;-96
2023/01/01 13:30:07;;;;;;;;;;;;;;;;;;5003513;28;19921;-95
2023/01/01 13:32:39;;;;;;;;;;;;;;;;;;5003236;28;19925;-94
2023/01/01 13:37:41;;;;;;;;;;;;;;;;;;5681924;23;19925;-93
2023/01/01 13:40:10;;;;;;;;;;;;;;;;;;5019655;28;20003;-96
2023/01/01 13:42:36;;;;;;;;;;;;;;;;;;5034490;28;19921;-93
2023/01/01 13:45:02;;;;;;;;;;;;;;;;;;5035641;28;20591;-94
2023/01/01 13:47:31;;;;;;;;;;;;;;;;;;5031783;28;19960;-95
2023/01/01 13:49:57;;;;;;;;;;;;;;;;;;5029775;28;20046;-95
2023/01/01 13:52:24;;;;;;;;;;;;;;;;;;5043097;28;19924;-95
2023/01/01 13:55:09;;;;;;;;;;;;;;;;;;;;;
2023/01/01 13:57:38;;;;;;;;;;;;;;;;;;5051978;28;20031;-93
2023/01/01 14:00:04;;;;;;;;;;;;;;;;;;5026674;28;20391;-96
2023/01/01 14:02:32;;;;;;;;;;;;;;;;;;5027889;28;19947;-96
2023/01/01 14:04:58;;;;;;;;;;;;;;;;;;5026167;28;19921;-93
2023/01/01 14:07:28;;;;;;;;;;;;;;;;;;5026257;28;19921;-96
2023/01/01 14:09:54;;;;;;;;;;;;;;;;;;5027155;28;19927;-95
2023/01/01 14:12:22;;;;;;;;;;;;;;;;;;5031620;28;19967;-94
2023/01/01 14:14:57;;;;;;;;;;;;;;;;;;5027867;28;19971;-89
2023/01/01 14:17:23;;;;;;;;;;;;;;;;;;5019682;28;19921;-88
2023/01/01 14:19:49;;;;;;;;;;;;;;;;;;5035971;28;19928;-88
2023/01/01 14:22:15;;;;;;;;;;;;;;;;;;5019344;28;20380;-88
2023/01/01 14:24:41;;;;;;;;;;;;;;;;;;5036137;28;19968;-92
2023/01/01 14:27:07;;;;;;;;;;;;;;;;;;5020000;28;19987;-89
2023/01/01 14:29:34;;;;;;;;;;;;;;;;;;5036204;28;19963;-89
2023/01/01 14:32:01;;;;;;;;;;;;;;;;;;5019052;28;19971;-90
2023/01/01 14:34:27;;;;;;;;;;;;;;;;;;5019296;28;19920;-90
2023/01/01 14:36:53;;;;;;;;;;;;;;;;;;5018891;28;20007;-90
2023/01/01 14:39:18;;;;;;;;;;;;;;;;;;5018977;28;19932;-89
2023/01/01 14:41:44;;;;;;;;;;;;;;;;;;5018951;28;19928;-91
2023/01/01 14:44:10;;;;;;;;;;;;;;;;;;5018826;28;19921;-90
2023/01/01 14:46:36;;;;;;;;;;;;;;;;;;5035376;28;20041;-90
2023/01/01 14:49:02;;;;;;;;;;;;;;;;;;5019279;28;20015;-89
2023/01/01 14:51:28;;;;;;;;;;;;;;;;;;5019412;28;20441;-89
2023/01/01 14:53:54;;;;;;;;;;;;;;;;;;5035593;28;19970;-89
2023/01/01 14:56:20;;;;;;;;;;;;;;;;;;5019294;28;19951;-92
2023/01/01 14:58:46;;;;;;;;;;;;;;;;;;5019578;28;19979;-89
2023/01/01 15:01:12;;;;;;;;;;;;;;;;;;5019054;28;20417;-88
2023/01/01 15:03:37;;;;;;;;;;;;;;;;;;5018505;28;19920;-89
2023/01/01 15:06:05;;;;;;;;;;;;;;;;;;5035690;28;19927;-87
2023/01/01 15:08:31;;;;;;;;;;;;;;;;;;5019257;28;19921;-88
2023/01/01 15:10:57;;;;;;;;;;;;;;;;;;5034937;28;20442;-90
2023/01/01 15:13:23;;;;;;;;;;;;;;;;;;5018717;28;20275;-88
2023/01/01 15:15:49;;;;;;;;;;;;;;;;;;5018382;28;20368;-87
2023/01/01 15:18:15;;;;;;;;;;;;;;;;;;5018235;28;19921;-87
2023/01/01 15:20:41;;;;;;;;;;;;;;;;;;5035237;28;20009;-89
2023/01/01 15:23:07;;;;;;;;;;;;;;;;;;5034793;28;19921;-88
2023/01/01 15:25:35;;;;;;;;;;;;;;;;;;5018562;28;19931;-88
2023/01/01 15:28:01;;;;;;;;;;;;;;;;;;5018398;28;19927;-90
2023/01/01 15:30:27;;;;;;;;;;;;;;;;;;5018734;28;19966;-91
2023/01/01 15:32:53;;;;;;;;;;;;;;;;;;5018502;28;19929;-89
2023/01/01 15:35:20;;;;;;;;;;;;;;;;;;5018457;28;19928;-92
2023/01/01 15:37:46;;;;;;;;;;;;;;;;;;5018415;28;19975;-90
2023/01/01 15:40:12;;;;;;;;;;;;;;;;;;5018097;28;19925;-90
2023/01/01 15:42:38;;;;;;;;;;;;;;;;;;5018221;28;20367;-89
2023/01/01 15:45:04;;;;;;;;;;;;;;;;;;5017989;28;19920;-89
2023/01/01 15:47:29;;;;;;;;;;;;;;;;;;5034260;28;19929;-89
2023/01/01 15:49:55;;;;;;;;;;;;;;;;;;5018205;28;19955;-89
2023/01/01 15:52:21;;;;;;;;;;;;;;;;;;5018097;28;19971;-92
2023/01/01 15:54:51;;;;;;;;;;;;;;;;;;5035014;28;20003;-93
2023/01/01 15:57:20;;;;;;;;;;;;;;;;;;5035829;28;19925;-93
2023/01/01 15:59:47;;;;;;;;;;;;;;;;;;5017466;28;19928;-89
2023/01/01 16:02:13;;;;;;;;;;;;;;;;;;5018503;28;19935;-93
2023/01/01 16:07:18;;;;;;;;;;;;;;;;;;5127614;22;20315;-92
2023/01/01 16:09:48;;;;;;;;;;;;;;;;;;5051562;28;20349;-93
2023/01/01 16:12:13;;;;;;;;;;;;;;;;;;5035085;28;19929;-94
2023/01/01 16:14:46;;;;;;;;;;;;;;;;;;5051464;28;19932;-94
2023/01/01 16:17:15;;;;;;;;;;;;;;;;;;5015943;28;19967;-94
2023/01/01 16:19:41;;;;;;;;;;;;;;;;;;5016316;28;19921;-94
2023/01/01 16:22:17;;;;;;;;;;;;;;;;;;5017179;28;19925;-96
2023/01/01 16:56:49;;;;;;;;;;;;;;;;;;5524462;23;19986;-95
2023/01/01 16:59:15;;;;;;;;;;;;;;;;;;5022651;28;19929;-94
2023/01/01 17:01:44;;;;;;;;;;;;;;;;;;5039268;28;20393;-92
2023/01/01 17:04:39;;;;;;;;;;;;;;;;;;5051268;28;19921;-87
2023/01/01 17:07:05;;;;;;;;;;;;;;;;;;5020893;28;19929;-90
2023/01/01 17:09:31;;;;;;;;;;;;;;;;;;5020866;28;19921;-88
2023/01/01 17:11:57;;;;;;;;;;;;;;;;;;5037247;28;20379;-88
2023/01/01 17:14:23;;;;;;;;;;;;;;;;;;5037167;28;19921;-88
2023/01/01 17:16:51;;;;;;;;;;;;;;;;;;5037418;28;19970;-88
2023/01/01 17:19:17;;;;;;;;;;;;;;;;;;5020487;28;20256;-88
2023/01/01 17:21:43;;;;;;;;;;;;;;;;;;5020427;28;19921;-91
2023/01/01 17:24:09;;;;;;;;;;;;;;;;;;5021394;28;19947;-90
2023/01/01 17:26:38;;;;;;;;;;;;;;;;;;5037603;28;19928;-90
2023/01/01 17:29:06;;;;;;;;;;;;;;;;;;5020562;28;19921;-93
2023/01/01 17:31:32;;;;;;;;;;;;;;;;;;5020895;28;19921;-93
2023/01/01 17:33:58;;;;;;;;;;;;;;;;;;5020983;28;19931;-92
2023/01/01 17:36:26;;;;;;;;;;;;;;;;;;5020256;28;20004;-91
2023/01/01 17:38:52;;;;;;;;;;;;;;;;;;5021140;28;19920;-92
2023/01/01 17:41:21;;;;;;;;;;;;;;;;;;5021194;28;20358;-92
2023/01/01 17:43:47;;;;;;;;;;;;;;;;;;5037046;28;20012;-93
2023/01/01 17:46:15;;;;;;;;;;;;;;;;;;5020992;28;19932;-96
2023/01/01 17:48:44;;;;;;;;;;;;;;;;;;5038988;28;19921;-91
2023/01/01 17:51:10;;;;;;;;;;;;;;;;;;5036792;28;19921;-92
2023/01/01 17:53:38;;;;;;;;;;;;;;;;;;5020103;28;19948;-91
2023/01/01 17:56:04;;;;;;;;;;;;;;;;;;5018323;28;20037;-96